Time;durP1;ratioP1;P1;durP2;ratioP2;P2;SDS_P1;SDS_P2;PMS_P1;PMS_P2;Temp;Humidity;BMP_temperature;BMP_pressure;BME280_temperature;BME280_humidity;BME280_pressure;Samples;Min_cycle;Max_cycle;Signal;HPM_P1;HPM_P2
2023/08/14 00:01:21;;;;;;;2.40;2.20;;;17.20;99.90;;;;;;4210237;28;20024;-68
2023/08/14 00:03:22;;;;;;;3.15;2.00;;;17.10;99.90;;;;;;4211088;28;20476;-63
2023/08/14 00:05:24;;;;;;;3.50;2.42;;;17.10;99.90;;;;;;4210414;28;20106;-62
2023/08/14 00:07:25;;;;;;;5.63;2.42;;;17.00;99.90;;;;;;4211572;28;20475;-64
2023/08/14 00:09:26;;;;;;;5.93;2.20;;;17.00;99.90;;;;;;4210362;28;20093;-62
2023/08/14 00:11:27;;;;;;;3.17;2.22;;;17.00;99.90;;;;;;4211130;28;20078;-63
2023/08/14 00:13:28;;;;;;;2.80;2.55;;;17.00;99.90;;;;;;4210100;28;20411;-64
2023/08/14 00:15:29;;;;;;;2.60;2.38;;;17.00;99.90;;;;;;4210910;28;20430;-64
2023/08/14 00:17:30;;;;;;;2.80;2.40;;;16.90;99.90;;;;;;4209719;28;20081;-66
2023/08/14 00:19:31;;;;;;;4.25;2.10;;;16.90;99.90;;;;;;4210910;28;20024;-64
2023/08/14 00:21:32;;;;;;;2.60;2.40;;;16.90;99.90;;;;;;4210432;28;20044;-65
2023/08/14 00:23:34;;;;;;;2.88;2.58;;;16.90;99.90;;;;;;4209296;28;20105;-69
2023/08/14 00:25:35;;;;;;;4.32;2.20;;;16.80;99.90;;;;;;4209492;28;20109;-64
2023/08/14 00:27:36;;;;;;;2.90;2.20;;;16.90;99.90;;;;;;4210153;28;20472;-64
2023/08/14 00:29:37;;;;;;;4.22;2.67;;;16.80;99.90;;;;;;4210001;28;20048;-62
2023/08/14 00:31:39;;;;;;;5.72;2.35;;;16.70;99.90;;;;;;4209199;28;20060;-62
2023/08/14 00:33:40;;;;;;;7.57;2.38;;;16.70;99.90;;;;;;4211118;28;20028;-71
2023/08/14 00:35:41;;;;;;;3.15;2.42;;;16.80;99.90;;;;;;4209958;28;20121;-66
2023/08/14 00:37:44;;;;;;;2.80;2.30;;;16.70;99.90;;;;;;4210829;28;20492;-68
2023/08/14 00:39:45;;;;;;;3.47;2.00;;;16.70;99.90;;;;;;4209371;28;20534;-69
2023/08/14 00:41:47;;;;;;;2.30;2.10;;;16.70;99.90;;;;;;4210340;28;20040;-66
2023/08/14 00:43:48;;;;;;;3.00;2.25;;;16.70;99.90;;;;;;4190907;28;20496;-62
2023/08/14 00:45:54;;;;;;;3.65;2.28;;;16.70;99.90;;;;;;4210134;28;20085;-62
2023/08/14 00:47:56;;;;;;;5.55;2.67;;;16.70;99.90;;;;;;4209338;28;20569;-62
2023/08/14 00:49:58;;;;;;;4.55;2.30;;;16.60;99.90;;;;;;4210039;28;20117;-65
2023/08/14 00:52:00;;;;;;;5.00;1.90;;;16.60;99.90;;;;;;4210091;28;20105;-64
2023/08/14 00:54:01;;;;;;;3.88;2.38;;;16.60;99.90;;;;;;4210995;28;20101;-64
2023/08/14 00:56:03;;;;;;;4.10;2.67;;;16.60;99.90;;;;;;4190955;28;20118;-64
2023/08/14 00:58:05;;;;;;;2.42;2.22;;;16.60;99.90;;;;;;4210058;28;20024;-63
2023/08/14 01:00:07;;;;;;;2.83;2.42;;;16.60;99.90;;;;;;4210019;28;20048;-68
2023/08/14 01:02:08;;;;;;;2.78;2.35;;;16.60;99.90;;;;;;4209123;28;20044;-67
2023/08/14 01:04:09;;;;;;;6.68;2.58;;;16.60;99.90;;;;;;4209969;28;20082;-68
2023/08/14 01:06:11;;;;;;;4.28;2.28;;;16.60;99.90;;;;;;4208786;28;20048;-66
2023/08/14 01:08:12;;;;;;;2.67;2.40;;;16.60;99.90;;;;;;4210121;28;20036;-69
2023/08/14 01:10:13;;;;;;;3.03;1.88;;;16.50;99.90;;;;;;4208603;28;20378;-68
2023/08/14 01:12:30;;;;;;;3.17;2.35;;;16.50;99.90;;;;;;4210215;28;20040;-61
2023/08/14 01:14:33;;;;;;;2.30;1.98;;;16.40;99.90;;;;;;4208800;28;20044;-64
2023/08/14 01:16:41;;;;;;;2.20;2.00;;;16.40;99.90;;;;;;4210940;28;20089;-65
2023/08/14 01:18:45;;;;;;;2.40;2.20;;;16.40;99.90;;;;;;4208999;28;20098;-61
2023/08/14 01:21:00;;;;;;;3.33;2.30;;;16.40;99.90;;;;;;4210444;28;20036;-62
2023/08/14 01:23:33;;;;;;;2.58;2.15;;;16.40;99.90;;;;;;4209374;28;20097;-62
2023/08/14 01:25:37;;;;;;;5.05;2.72;;;16.30;99.90;;;;;;4210981;28;20036;-64
2023/08/14 01:27:38;;;;;;;5.07;2.42;;;16.10;99.90;;;;;;4208870;28;20065;-65
2023/08/14 01:29:39;;;;;;;3.90;2.55;;;16.00;99.90;;;;;;4210901;28;20032;-66
2023/08/14 01:31:40;;;;;;;8.63;2.65;;;16.00;99.90;;;;;;4212769;28;20537;-64
2023/08/14 01:33:41;;;;;;;4.13;2.65;;;15.90;99.90;;;;;;4213778;28;20077;-67
2023/08/14 01:35:49;;;;;;;4.10;3.10;;;15.90;99.90;;;;;;4211736;28;20081;-65
2023/08/14 01:38:04;;;;;;;4.40;2.85;;;15.90;99.90;;;;;;4213077;28;20040;-68
2023/08/14 01:40:20;;;;;;;3.67;2.53;;;15.90;99.90;;;;;;4212460;28;20081;-65
2023/08/14 01:42:28;;;;;;;8.32;2.65;;;15.80;99.90;;;;;;4213170;28;20044;-62
2023/08/14 01:44:32;;;;;;;4.53;2.83;;;15.80;99.90;;;;;;4212434;28;20036;-65
2023/08/14 01:46:35;;;;;;;4.97;2.67;;;15.80;99.90;;;;;;4213649;28;20020;-64
2023/08/14 01:48:38;;;;;;;5.53;2.75;;;15.80;99.90;;;;;;4211872;28;20070;-67
2023/08/14 01:50:40;;;;;;;6.38;2.33;;;15.80;99.90;;;;;;4213558;28;20519;-69
2023/08/14 01:52:41;;;;;;;3.17;2.50;;;15.80;99.90;;;;;;4212581;28;20028;-65
2023/08/14 01:54:42;;;;;;;4.00;2.30;;;15.80;99.90;;;;;;4213420;28;20069;-66
2023/08/14 01:56:43;;;;;;;3.80;3.10;;;15.70;99.90;;;;;;4212483;28;20078;-67
2023/08/14 01:58:44;;;;;;;5.32;2.20;;;15.70;99.90;;;;;;4212015;28;20126;-70
2023/08/14 02:00:45;;;;;;;4.90;2.83;;;15.60;99.90;;;;;;4212145;28;20032;-67
2023/08/14 02:02:47;;;;;;;8.52;2.45;;;15.60;99.90;;;;;;4211665;28;20036;-65
2023/08/14 02:04:48;;;;;;;4.13;2.70;;;15.60;99.90;;;;;;4212608;28;20040;-65
2023/08/14 02:06:49;;;;;;;4.10;2.40;;;15.60;99.90;;;;;;4212239;28;20032;-62
2023/08/14 02:08:50;;;;;;;3.78;2.90;;;15.60;99.90;;;;;;4213258;28;20099;-64
2023/08/14 02:10:51;;;;;;;5.78;2.60;;;15.60;99.90;;;;;;4211890;28;20044;-63
2023/08/14 02:12:52;;;;;;;2.50;2.30;;;15.50;99.90;;;;;;4213010;28;20450;-62
2023/08/14 02:14:53;;;;;;;4.57;2.83;;;15.30;99.90;;;;;;4212072;28;20081;-61
2023/08/14 02:16:55;;;;;;;3.13;2.47;;;15.30;99.90;;;;;;4213012;28;20024;-64
2023/08/14 02:18:56;;;;;;;4.35;2.80;;;15.30;99.90;;;;;;4212039;28;20073;-63
2023/08/14 02:20:57;;;;;;;5.07;2.70;;;15.30;99.90;;;;;;4212873;28;20036;-66
2023/08/14 02:22:58;;;;;;;5.10;2.58;;;15.30;99.90;;;;;;4193908;28;20602;-65
2023/08/14 02:24:59;;;;;;;2.95;2.70;;;15.30;99.90;;;;;;4212995;28;20446;-63
2023/08/14 02:27:00;;;;;;;3.10;2.80;;;15.30;99.90;;;;;;4211956;28;20035;-61
2023/08/14 02:29:01;;;;;;;2.47;2.17;;;15.30;99.90;;;;;;4211936;28;20047;-63
2023/08/14 02:31:04;;;;;;;4.95;2.97;;;15.30;99.90;;;;;;4210868;28;20101;-65
2023/08/14 02:33:05;;;;;;;5.57;3.00;;;15.30;99.90;;;;;;4210979;28;20514;-61
2023/08/14 02:35:07;;;;;;;4.32;2.88;;;15.30;99.90;;;;;;4212433;28;20468;-61
2023/08/14 02:37:08;;;;;;;4.53;3.25;;;15.20;99.90;;;;;;4212025;28;20024;-63
2023/08/14 02:39:09;;;;;;;4.10;2.60;;;15.20;99.90;;;;;;4212172;28;20464;-62
2023/08/14 02:41:10;;;;;;;4.28;2.47;;;15.20;99.90;;;;;;4210062;28;20032;-66
2023/08/14 02:43:12;;;;;;;6.22;2.88;;;15.20;99.90;;;;;;4212778;28;20037;-64
2023/08/14 02:45:13;;;;;;;2.58;2.20;;;15.20;99.90;;;;;;4210588;28;20563;-67
2023/08/14 02:47:14;;;;;;;5.70;3.10;;;15.20;99.90;;;;;;4211762;28;20464;-65
2023/08/14 02:49:15;;;;;;;3.83;2.70;;;15.20;99.90;;;;;;4211471;28;20032;-65
2023/08/14 02:51:16;;;;;;;3.58;2.55;;;15.10;99.90;;;;;;4194501;28;20060;-65
2023/08/14 02:53:17;;;;;;;3.63;2.97;;;15.10;99.90;;;;;;4210660;28;20055;-69
2023/08/14 02:55:19;;;;;;;5.28;2.75;;;15.00;99.90;;;;;;4212232;28;20036;-66
2023/08/14 02:57:20;;;;;;;3.78;2.70;;;15.00;99.90;;;;;;4211078;28;20411;-63
2023/08/14 02:59:21;;;;;;;3.35;2.67;;;15.00;99.90;;;;;;4211337;28;20040;-63
2023/08/14 03:01:23;;;;;;;7.47;3.00;;;15.00;99.90;;;;;;4211204;28;20040;-66
2023/08/14 03:03:24;;;;;;;4.72;2.33;;;15.00;99.90;;;;;;4211278;28;20031;-67
2023/08/14 03:05:25;;;;;;;5.00;3.00;;;15.00;99.90;;;;;;4210838;28;20054;-66
2023/08/14 03:07:26;;;;;;;4.47;2.80;;;15.00;99.90;;;;;;4210853;28;20469;-66
2023/08/14 03:09:27;;;;;;;4.10;2.88;;;15.00;99.90;;;;;;4211923;28;20036;-62
2023/08/14 03:11:28;;;;;;;4.72;3.05;;;15.00;99.90;;;;;;4210625;28;20105;-63
2023/08/14 03:13:29;;;;;;;5.30;3.25;;;15.00;99.90;;;;;;4212368;28;20028;-68
2023/08/14 03:15:30;;;;;;;6.53;2.42;;;14.90;99.90;;;;;;4210445;28;20040;-64
2023/08/14 03:17:31;;;;;;;6.35;3.05;;;14.90;99.90;;;;;;4211053;28;20158;-68
2023/08/14 03:19:32;;;;;;;7.72;3.63;;;14.80;99.90;;;;;;4210658;28;20101;-63
2023/08/14 03:21:34;;;;;;;3.67;2.72;;;14.80;99.90;;;;;;4211547;28;20020;-67
2023/08/14 03:23:35;;;;;;;3.15;2.85;;;14.70;99.90;;;;;;4210773;28;20472;-67
2023/08/14 03:25:36;;;;;;;6.65;3.40;;;14.60;99.90;;;;;;4193491;28;20032;-65
2023/08/14 03:27:38;;;;;;;9.35;3.70;;;14.60;99.90;;;;;;4209471;28;20048;-62
2023/08/14 03:29:39;;;;;;;5.38;3.42;;;14.60;99.90;;;;;;4211094;28;20040;-67
2023/08/14 03:31:40;;;;;;;5.25;3.28;;;14.60;99.90;;;;;;4211037;28;20188;-65
2023/08/14 03:33:41;;;;;;;6.43;3.28;;;14.70;99.90;;;;;;4210851;28;20093;-65
2023/08/14 03:35:42;;;;;;;4.38;3.08;;;14.80;99.90;;;;;;4210095;28;20077;-63
2023/08/14 03:37:43;;;;;;;5.07;2.97;;;15.00;99.90;;;;;;4210480;28;20545;-65
2023/08/14 03:39:44;;;;;;;6.00;2.75;;;15.10;99.90;;;;;;4209847;28;20039;-66
2023/08/14 03:41:45;;;;;;;2.95;2.47;;;15.30;99.90;;;;;;4210120;28;20097;-65
2023/08/14 03:43:47;;;;;;;4.47;3.15;;;15.50;99.90;;;;;;4211910;28;20430;-64
2023/08/14 03:45:48;;;;;;;3.60;2.80;;;15.80;99.90;;;;;;4209514;28;20387;-63
2023/08/14 03:47:49;;;;;;;4.82;2.83;;;16.10;99.90;;;;;;4211111;28;20024;-69
2023/08/14 03:49:50;;;;;;;3.50;2.85;;;16.40;99.90;;;;;;4191340;28;20060;-66
2023/08/14 03:51:51;;;;;;;4.20;2.78;;;16.70;99.90;;;;;;4211262;28;20446;-63
2023/08/14 03:53:52;;;;;;;5.20;2.92;;;17.10;99.90;;;;;;4209721;28;20426;-68
2023/08/14 03:55:55;;;;;;;6.05;2.78;;;17.40;99.90;;;;;;4211082;28;20039;-65
2023/08/14 03:57:57;;;;;;;3.10;2.75;;;17.80;99.90;;;;;;4209194;28;20101;-62
2023/08/14 03:59:58;;;;;;;6.22;2.90;;;18.20;99.90;;;;;;4210329;28;20032;-62
2023/08/14 04:01:59;;;;;;;5.47;2.88;;;18.50;99.90;;;;;;4210339;28;20073;-68
2023/08/14 04:04:00;;;;;;;6.22;3.58;;;18.80;99.90;;;;;;4210020;28;20419;-61
2023/08/14 04:06:02;;;;;;;5.10;2.85;;;19.10;99.90;;;;;;4209908;28;20040;-63
2023/08/14 04:08:03;;;;;;;10.43;2.90;;;19.10;99.90;;;;;;4210063;28;20024;-67
2023/08/14 04:10:04;;;;;;;3.78;2.92;;;19.30;99.90;;;;;;4208307;28;20460;-61
2023/08/14 04:12:09;;;;;;;5.53;2.35;;;19.60;99.90;;;;;;4210432;28;20498;-61
2023/08/14 04:14:10;;;;;;;8.32;3.30;;;19.90;99.90;;;;;;4211150;28;20029;-61
2023/08/14 04:16:11;;;;;;;4.88;3.08;;;20.00;99.90;;;;;;4209883;28;20108;-61
2023/08/14 04:18:12;;;;;;;9.00;3.22;;;20.00;99.90;;;;;;4211309;28;20442;-65
2023/08/14 04:20:13;;;;;;;3.83;2.63;;;20.20;99.90;;;;;;4210051;28;20032;-61
2023/08/14 04:22:14;;;;;;;7.03;3.05;;;20.40;99.90;;;;;;4209837;28;20097;-61
2023/08/14 04:24:15;;;;;;;8.20;3.22;;;20.70;99.90;;;;;;4191582;28;20086;-60
2023/08/14 04:26:17;;;;;;;7.63;2.50;;;20.90;99.90;;;;;;4210263;28;20062;-69
2023/08/14 04:28:18;;;;;;;4.43;2.30;;;21.10;99.90;;;;;;4207353;28;20089;-60
2023/08/14 04:30:19;;;;;;;6.07;2.83;;;21.10;99.90;;;;;;4209639;28;20434;-62
2023/08/14 04:32:20;;;;;;;7.22;2.97;;;21.40;99.90;;;;;;4209057;28;20395;-65
2023/08/14 04:34:21;;;;;;;13.57;3.30;;;21.70;99.90;;;;;;4192408;28;20105;-65
2023/08/14 04:36:22;;;;;;;5.65;3.65;;;21.50;99.90;;;;;;4209919;28;20533;-64
2023/08/14 04:38:24;;;;;;;9.63;3.40;;;21.60;99.90;;;;;;4210485;28;20073;-61
2023/08/14 04:40:25;;;;;;;9.60;3.28;;;21.50;99.90;;;;;;4210165;28;20481;-60
2023/08/14 04:42:26;;;;;;;9.20;3.45;;;21.90;99.90;;;;;;4208115;28;20181;-63
2023/08/14 04:44:27;;;;;;;5.35;3.33;;;22.40;99.90;;;;;;4210387;28;20032;-67
2023/08/14 04:46:36;;;;;;;7.82;3.42;;;22.70;99.90;;;;;;4191402;28;20047;-65
2023/08/14 04:48:38;;;;;;;6.93;3.20;;;23.30;99.90;;;;;;4210535;28;20032;-65
2023/08/14 04:50:39;;;;;;;7.30;3.03;;;23.50;99.90;;;;;;4209506;28;20048;-63
2023/08/14 04:52:40;;;;;;;14.88;3.13;;;23.50;99.90;;;;;;4210569;28;20550;-63
2023/08/14 04:54:41;;;;;;;18.80;3.75;;;23.80;99.90;;;;;;4209760;28;20052;-62
2023/08/14 04:56:42;;;;;;;10.80;3.78;;;24.00;99.90;;;;;;4210706;28;20028;-62
2023/08/14 04:58:44;;;;;;;14.60;4.20;;;24.00;99.90;;;;;;4209529;28;20032;-63
2023/08/14 05:00:45;;;;;;;13.30;4.75;;;24.30;99.90;;;;;;4210718;28;20081;-64
2023/08/14 05:02:46;;;;;;;16.27;5.03;;;24.20;99.30;;;;;;4208008;28;20048;-70
2023/08/14 05:04:48;;;;;;;15.57;4.82;;;23.90;99.40;;;;;;4212822;28;20036;-60
2023/08/14 05:06:49;;;;;;;14.13;4.65;;;23.70;99.30;;;;;;4201831;28;20037;-61
2023/08/14 05:08:50;;;;;;;18.25;4.70;;;23.80;99.40;;;;;;4196731;28;20036;-62
2023/08/14 05:10:52;;;;;;;33.95;6.90;;;24.00;99.10;;;;;;4195993;28;20085;-62
2023/08/14 05:12:55;;;;;;;31.27;7.25;;;24.40;98.50;;;;;;4196026;28;20036;-61
2023/08/14 05:14:56;;;;;;;27.70;5.57;;;24.60;98.20;;;;;;4196463;28;20062;-62
2023/08/14 05:16:57;;;;;;;21.60;6.07;;;25.20;97.60;;;;;;4177736;28;20378;-62
2023/08/14 05:18:58;;;;;;;15.63;4.60;;;25.80;97.00;;;;;;4202113;28;20492;-64
2023/08/14 05:21:00;;;;;;;17.33;5.25;;;25.70;96.50;;;;;;4212204;28;20472;-61
2023/08/14 05:23:01;;;;;;;13.68;5.22;;;25.80;96.30;;;;;;4213905;28;20028;-60
2023/08/14 05:25:02;;;;;;;24.98;5.00;;;26.00;95.90;;;;;;4212603;28;20028;-66
2023/08/14 05:27:03;;;;;;;22.95;5.82;;;26.20;95.50;;;;;;4213248;28;20465;-61
2023/08/14 05:29:04;;;;;;;17.40;4.80;;;26.30;95.10;;;;;;4211423;28;20074;-62
2023/08/14 05:31:08;;;;;;;15.63;4.55;;;26.10;95.10;;;;;;4213761;28;20446;-61
2023/08/14 05:33:09;;;;;;;19.90;5.57;;;25.60;95.10;;;;;;4212068;28;20020;-61
2023/08/14 05:35:10;;;;;;;15.88;4.35;;;25.20;95.60;;;;;;4213040;28;20028;-63
2023/08/14 05:37:11;;;;;;;8.52;4.32;;;25.10;95.60;;;;;;4212327;28;20476;-63
2023/08/14 05:39:12;;;;;;;14.38;4.88;;;25.50;95.50;;;;;;4212833;28;20113;-61
2023/08/14 05:41:14;;;;;;;14.27;5.13;;;26.00;95.10;;;;;;4193230;28;20040;-63
2023/08/14 05:43:15;;;;;;;11.05;4.45;;;26.50;94.50;;;;;;4212670;28;20077;-62
2023/08/14 05:45:16;;;;;;;7.55;4.15;;;26.90;94.10;;;;;;4212794;28;20024;-62
2023/08/14 05:47:17;;;;;;;13.05;4.10;;;27.00;93.60;;;;;;4212189;28;20070;-65
2023/08/14 05:49:18;;;;;;;11.45;3.90;;;27.00;93.30;;;;;;4212934;28;20040;-60
2023/08/14 05:51:19;;;;;;;20.45;4.60;;;27.30;93.20;;;;;;4212384;28;20113;-61
2023/08/14 05:53:20;;;;;;;20.30;4.22;;;27.50;92.70;;;;;;4212322;28;20460;-60
2023/08/14 05:55:22;;;;;;;9.95;3.40;;;27.70;92.40;;;;;;4212079;28;20089;-60
2023/08/14 05:57:23;;;;;;;9.05;3.70;;;27.50;92.20;;;;;;4213080;28;20494;-61
2023/08/14 05:59:24;;;;;;;9.95;3.42;;;26.90;92.50;;;;;;4211788;28;20498;-61
2023/08/14 06:01:26;;;;;;;6.03;2.63;;;26.80;92.70;;;;;;4212911;28;20039;-61
2023/08/14 06:03:27;;;;;;;5.40;3.10;;;26.80;92.70;;;;;;4212220;28;20514;-58
2023/08/14 06:05:29;;;;;;;9.52;2.78;;;27.20;92.50;;;;;;4214982;28;20036;-63
2023/08/14 06:07:30;;;;;;;6.45;2.97;;;27.00;92.40;;;;;;4205248;28;20028;-63
2023/08/14 06:09:31;;;;;;;5.97;3.60;;;27.30;92.30;;;;;;4209014;28;20032;-63
2023/08/14 06:11:32;;;;;;;7.88;3.35;;;27.50;92.10;;;;;;4206311;28;20094;-62
2023/08/14 06:13:33;;;;;;;5.60;3.05;;;27.30;91.80;;;;;;4207025;28;20036;-61
2023/08/14 06:15:34;;;;;;;8.77;3.38;;;27.10;91.90;;;;;;4205385;28;20032;-65
2023/08/14 06:17:35;;;;;;;5.70;2.80;;;26.90;91.90;;;;;;4208134;28;20147;-67
2023/08/14 06:19:36;;;;;;;7.68;3.70;;;26.50;92.20;;;;;;4207971;28;20430;-64
2023/08/14 06:21:37;;;;;;;8.30;4.07;;;26.00;92.40;;;;;;4207671;28;20052;-61
2023/08/14 06:23:39;;;;;;;6.45;3.70;;;25.90;92.50;;;;;;4207776;28;20032;-62
2023/08/14 06:25:40;;;;;;;5.50;3.15;;;25.70;92.80;;;;;;4207622;28;20383;-62
2023/08/14 06:27:41;;;;;;;8.38;4.63;;;25.60;93.00;;;;;;4207210;28;20048;-67
2023/08/14 06:29:42;;;;;;;12.73;5.10;;;25.30;93.10;;;;;;4207188;28;20101;-65
2023/08/14 06:31:44;;;;;;;8.68;3.88;;;25.10;93.30;;;;;;4207496;28;20085;-64
2023/08/14 06:33:46;;;;;;;13.80;2.90;;;24.90;93.60;;;;;;4205533;28;20036;-63
2023/08/14 06:35:47;;;;;;;6.00;2.70;;;25.00;93.20;;;;;;4207135;28;20069;-65
2023/08/14 06:37:49;;;;;;;11.82;3.70;;;25.20;93.20;;;;;;4206549;28;20117;-63
2023/08/14 06:39:50;;;;;;;5.10;3.17;;;25.20;93.10;;;;;;4207058;28;20497;-65
2023/08/14 06:41:52;;;;;;;5.82;2.75;;;25.20;93.00;;;;;;4206812;28;20035;-63
2023/08/14 06:43:53;;;;;;;5.97;2.72;;;25.20;93.00;;;;;;4208169;28;20028;-62
2023/08/14 06:45:54;;;;;;;4.25;2.20;;;25.30;92.90;;;;;;4205542;28;20040;-61
2023/08/14 06:47:55;;;;;;;4.72;2.72;;;24.80;92.80;;;;;;4207629;28;20391;-65
2023/08/14 06:49:56;;;;;;;8.60;3.20;;;25.00;93.20;;;;;;4205527;28;20106;-63
2023/08/14 06:51:58;;;;;;;4.93;3.08;;;25.40;93.00;;;;;;4211168;28;20060;-63
2023/08/14 06:53:59;;;;;;;3.83;2.22;;;25.70;92.90;;;;;;4212143;28;20032;-66
2023/08/14 06:56:00;;;;;;;3.47;2.67;;;25.80;92.70;;;;;;4211152;28;20044;-69
2023/08/14 06:58:01;;;;;;;2.72;2.45;;;25.30;92.80;;;;;;4212484;28;20020;-62
2023/08/14 07:00:11;;;;;;;4.80;2.72;;;24.90;93.60;;;;;;4211391;28;20032;-65
2023/08/14 07:02:13;;;;;;;11.43;2.70;;;24.50;93.80;;;;;;4212411;28;20382;-66
2023/08/14 07:04:14;;;;;;;3.25;2.90;;;24.30;94.30;;;;;;4211152;28;20040;-64
2023/08/14 07:06:15;;;;;;;9.85;3.25;;;24.30;94.50;;;;;;4210535;28;20097;-69
2023/08/14 07:08:16;;;;;;;7.18;3.22;;;24.10;94.80;;;;;;4210873;28;20077;-64
2023/08/14 07:10:17;;;;;;;4.30;3.00;;;24.00;95.10;;;;;;4211587;28;20036;-66
2023/08/14 07:12:18;;;;;;;3.40;3.10;;;24.00;95.10;;;;;;4210952;28;20044;-63
2023/08/14 07:14:19;;;;;;;3.65;3.30;;;24.10;95.10;;;;;;4211044;28;20421;-66
2023/08/14 07:16:21;;;;;;;9.93;3.20;;;24.30;95.10;;;;;;4210323;28;20032;-62
2023/08/14 07:18:22;;;;;;;4.63;3.40;;;24.60;94.90;;;;;;4211861;28;20040;-64
2023/08/14 07:20:23;;;;;;;5.95;2.80;;;24.40;95.00;;;;;;4210822;28;20472;-64
2023/08/14 07:22:24;;;;;;;6.18;3.05;;;24.40;95.20;;;;;;4210995;28;20053;-65
2023/08/14 07:24:25;;;;;;;8.48;3.60;;;24.30;95.30;;;;;;4210707;28;20020;-64
2023/08/14 07:26:26;;;;;;;4.60;2.85;;;24.20;95.60;;;;;;4211572;28;20032;-69
2023/08/14 07:28:27;;;;;;;4.82;2.85;;;24.30;95.70;;;;;;4211321;28;20089;-65
2023/08/14 07:30:28;;;;;;;6.05;2.63;;;24.20;96.00;;;;;;4210368;28;20016;-63
2023/08/14 07:32:30;;;;;;;7.97;3.15;;;24.20;96.00;;;;;;4211310;28;20557;-65
2023/08/14 07:34:31;;;;;;;4.72;3.58;;;24.20;96.30;;;;;;4209571;28;20533;-64
2023/08/14 07:36:32;;;;;;;4.93;3.05;;;24.40;96.20;;;;;;4198834;28;20484;-63
2023/08/14 07:38:33;;;;;;;5.65;3.03;;;24.30;96.20;;;;;;4210584;28;20431;-65
2023/08/14 07:40:34;;;;;;;7.30;3.60;;;24.20;96.40;;;;;;4193025;28;20037;-67
2023/08/14 07:42:35;;;;;;;6.20;3.55;;;24.10;96.60;;;;;;4210112;28;20093;-69
2023/08/14 07:44:36;;;;;;;5.05;3.25;;;24.00;97.00;;;;;;4211467;28;20096;-67
2023/08/14 07:46:37;;;;;;;6.78;3.92;;;24.00;97.20;;;;;;4210099;28;20085;-63
2023/08/14 07:48:38;;;;;;;12.55;4.18;;;23.90;97.30;;;;;;4211121;28;20553;-67
2023/08/14 07:50:39;;;;;;;8.60;3.78;;;24.20;97.10;;;;;;4209673;28;20036;-63
2023/08/14 07:52:40;;;;;;;5.25;2.67;;;24.20;97.10;;;;;;4210360;28;20044;-65
2023/08/14 07:54:42;;;;;;;7.35;3.35;;;24.50;97.00;;;;;;4210436;28;20501;-68
2023/08/14 07:56:43;;;;;;;4.90;2.90;;;24.60;97.00;;;;;;4210496;28;20377;-66
2023/08/14 07:58:44;;;;;;;6.05;2.90;;;24.80;96.80;;;;;;4209327;28;20322;-64
2023/08/14 08:00:45;;;;;;;5.00;2.85;;;25.00;96.60;;;;;;4209202;28;20078;-68
2023/08/14 08:02:46;;;;;;;3.50;2.95;;;24.90;96.70;;;;;;4211209;28;20017;-61
2023/08/14 08:04:48;;;;;;;4.05;2.60;;;25.00;96.80;;;;;;4210142;28;20097;-62
2023/08/14 08:06:49;;;;;;;4.28;2.78;;;25.10;96.90;;;;;;4210119;28;20036;-62
2023/08/14 08:08:50;;;;;;;6.22;3.35;;;25.10;96.80;;;;;;4208586;28;20089;-63
2023/08/14 08:10:51;;;;;;;5.65;3.38;;;25.10;96.80;;;;;;4211265;28;20061;-66
2023/08/14 08:12:52;;;;;;;6.40;3.10;;;25.10;97.00;;;;;;4209268;28;20377;-63
2023/08/14 08:14:55;;;;;;;4.00;3.00;;;25.20;97.10;;;;;;4211405;28;20028;-66
2023/08/14 08:16:56;;;;;;;4.07;2.75;;;25.20;97.10;;;;;;4209793;28;20365;-63
2023/08/14 08:18:57;;;;;;;4.13;2.63;;;25.20;97.30;;;;;;4210491;28;20480;-62
2023/08/14 08:20:58;;;;;;;3.83;2.65;;;25.30;97.30;;;;;;4209180;28;20032;-65
2023/08/14 08:22:59;;;;;;;3.30;2.80;;;25.40;97.20;;;;;;4210897;28;20032;-62
2023/08/14 08:25:00;;;;;;;6.10;3.03;;;25.70;97.00;;;;;;4209958;28;20024;-64
2023/08/14 08:27:01;;;;;;;3.40;2.60;;;25.70;96.90;;;;;;4210930;28;20039;-65
2023/08/14 08:29:05;;;;;;;5.85;2.70;;;25.80;96.80;;;;;;4209136;28;20036;-62
2023/08/14 08:31:06;;;;;;;5.32;2.75;;;26.10;96.60;;;;;;4209170;28;20040;-63
2023/08/14 08:33:07;;;;;;;7.60;2.92;;;26.30;96.30;;;;;;4209635;28;20458;-67
2023/08/14 08:35:09;;;;;;;4.18;2.80;;;26.30;96.20;;;;;;4189715;28;20113;-63
2023/08/14 08:37:10;;;;;;;4.57;2.58;;;26.40;96.10;;;;;;4210427;28;20036;-63
2023/08/14 08:39:11;;;;;;;6.18;2.70;;;26.40;95.90;;;;;;4190657;28;20094;-68
2023/08/14 08:41:16;;;;;;;5.25;2.35;;;26.40;95.80;;;;;;4210115;28;20039;-68
2023/08/14 08:43:19;;;;;;;4.28;2.40;;;26.30;95.70;;;;;;4209631;28;20077;-68
2023/08/14 08:45:22;;;;;;;2.70;2.13;;;26.40;95.70;;;;;;4211139;28;20484;-62
2023/08/14 08:47:28;;;;;;;4.00;2.10;;;26.60;95.60;;;;;;4209217;28;20089;-65
2023/08/14 08:49:29;;;;;;;3.75;2.30;;;26.70;95.50;;;;;;4210107;28;20032;-69
2023/08/14 08:51:32;;;;;;;2.50;2.30;;;26.70;95.50;;;;;;4209209;28;20032;-66
2023/08/14 08:53:34;;;;;;;5.43;2.25;;;26.80;95.40;;;;;;4209829;28;20077;-63
2023/08/14 08:55:36;;;;;;;2.03;1.80;;;26.80;95.40;;;;;;4209833;28;20021;-63
2023/08/14 08:57:38;;;;;;;3.22;2.20;;;27.00;95.20;;;;;;4210918;28;20755;-62
2023/08/14 08:59:40;;;;;;;6.63;2.25;;;27.00;95.10;;;;;;4208970;28;20044;-65
2023/08/14 09:01:42;;;;;;;2.85;2.28;;;27.00;95.10;;;;;;4208843;28;20492;-66
2023/08/14 09:03:43;;;;;;;2.17;1.98;;;27.00;95.10;;;;;;4208542;28;20087;-60
2023/08/14 09:05:44;;;;;;;3.33;1.80;;;27.00;94.80;;;;;;4209006;28;20032;-63
2023/08/14 09:07:45;;;;;;;2.20;2.00;;;27.20;94.60;;;;;;4209860;28;20032;-64
2023/08/14 09:09:46;;;;;;;3.70;2.17;;;27.30;94.40;;;;;;4208631;28;20098;-66
2023/08/14 09:11:47;;;;;;;3.65;2.03;;;27.20;94.20;;;;;;4208794;28;20102;-66
2023/08/14 09:13:49;;;;;;;2.78;2.00;;;27.30;94.20;;;;;;4209353;28;20426;-64
2023/08/14 09:15:52;;;;;;;5.72;2.13;;;27.30;94.00;;;;;;4210739;28;20032;-65
2023/08/14 09:17:54;;;;;;;3.20;1.83;;;27.20;94.00;;;;;;4208586;28;20125;-67
2023/08/14 09:19:55;;;;;;;3.85;2.30;;;27.30;93.90;;;;;;4209884;28;20070;-64
2023/08/14 09:21:56;;;;;;;1.85;1.63;;;27.40;93.80;;;;;;4208399;28;20048;-65
2023/08/14 09:23:58;;;;;;;5.57;1.80;;;27.40;93.60;;;;;;4210501;28;20068;-64
2023/08/14 09:25:59;;;;;;;2.47;2.03;;;27.50;93.50;;;;;;4209601;28;20093;-63
2023/08/14 09:28:00;;;;;;;6.95;2.50;;;27.50;93.30;;;;;;4209775;28;20488;-62
2023/08/14 09:30:04;;;;;;;2.78;2.03;;;27.50;93.20;;;;;;4208326;28;20032;-64
2023/08/14 09:32:05;;;;;;;3.03;1.95;;;27.50;93.30;;;;;;4209767;28;20066;-61
2023/08/14 09:34:06;;;;;;;2.22;2.00;;;27.70;93.20;;;;;;4208631;28;20036;-62
2023/08/14 09:36:08;;;;;;;1.90;1.50;;;27.80;93.10;;;;;;4209218;28;20043;-64
2023/08/14 09:38:12;;;;;;;2.30;2.10;;;27.90;92.90;;;;;;4209363;28;20468;-67
2023/08/14 09:40:16;;;;;;;2.75;1.65;;;27.90;93.10;;;;;;4209142;28;20036;-68
2023/08/14 09:42:17;;;;;;;3.65;1.92;;;27.90;92.60;;;;;;4208777;28;20036;-66
2023/08/14 09:44:19;;;;;;;4.35;2.20;;;27.90;92.50;;;;;;4208576;28;20855;-67
2023/08/14 09:46:21;;;;;;;3.10;1.73;;;27.90;92.40;;;;;;4209687;28;20369;-65
2023/08/14 09:48:23;;;;;;;1.85;1.75;;;28.00;92.00;;;;;;4208572;28;20020;-64
2023/08/14 09:50:27;;;;;;;3.67;1.85;;;28.20;91.90;;;;;;4209524;28;20480;-64
2023/08/14 09:52:28;;;;;;;4.20;1.65;;;28.20;91.20;;;;;;4212154;28;20535;-65
2023/08/14 09:54:31;;;;;;;3.60;1.85;;;28.00;91.10;;;;;;4213144;28;20036;-65
2023/08/14 09:56:33;;;;;;;2.15;1.48;;;28.00;91.00;;;;;;4212552;28;20025;-62
2023/08/14 09:58:34;;;;;;;2.63;1.70;;;28.00;91.00;;;;;;4206750;28;20044;-63
2023/08/14 10:00:37;;;;;;;4.63;1.88;;;27.90;90.80;;;;;;4202200;28;20070;-62
2023/08/14 10:02:40;;;;;;;2.30;1.52;;;27.90;90.90;;;;;;4213121;28;20028;-62
2023/08/14 10:04:45;;;;;;;3.40;1.50;;;27.90;90.80;;;;;;4211667;28;20039;-62
2023/08/14 10:06:46;;;;;;;1.80;1.60;;;28.10;90.80;;;;;;4212859;28;20073;-61
2023/08/14 10:08:51;;;;;;;2.78;1.70;;;28.10;90.50;;;;;;4210960;28;20036;-61
2023/08/14 10:10:52;;;;;;;1.52;1.42;;;28.10;90.30;;;;;;4210966;28;20097;-60
2023/08/14 10:13:01;;;;;;;4.93;2.13;;;28.30;90.30;;;;;;4209714;28;20059;-64
2023/08/14 10:15:10;;;;;;;4.25;1.65;;;28.40;90.00;;;;;;4211756;28;20048;-61
2023/08/14 10:17:19;;;;;;;5.72;1.75;;;28.40;89.40;;;;;;4211969;28;20020;-60
2023/08/14 10:19:23;;;;;;;2.25;1.90;;;28.40;89.00;;;;;;4211040;28;20054;-60
2023/08/14 10:21:27;;;;;;;3.30;2.00;;;28.40;89.40;;;;;;4210416;28;20036;-61
2023/08/14 10:23:29;;;;;;;4.35;1.90;;;28.50;89.50;;;;;;4211641;28;20101;-60
2023/08/14 10:25:30;;;;;;;3.47;1.58;;;28.50;89.30;;;;;;4211019;28;20082;-59
2023/08/14 10:27:34;;;;;;;1.90;1.77;;;28.50;89.50;;;;;;4210004;28;20133;-64
2023/08/14 12:00:17;;;;;;;1.83;1.50;;;29.30;82.00;;;;;;4066395;29;20052;-65
2023/08/14 12:02:19;;;;;;;1.67;1.55;;;29.30;79.90;;;;;;4064381;29;20132;-65
2023/08/14 12:04:20;;;;;;;2.45;1.13;;;29.30;79.70;;;;;;4065121;29;20037;-63